Time;durP1;ratioP1;P1;durP2;ratioP2;P2;SDS_P1;SDS_P2;PMS_P1;PMS_P2;Temp;Humidity;BMP_temperature;BMP_pressure;BME280_temperature;BME280_humidity;BME280_pressure;Samples;Min_cycle;Max_cycle;Signal;HPM_P1;HPM_P2
2023/11/07 00:02:27;;;;;;;1.63;1.60;;;;;;;8.66;100.00;100504.44;10502634;28;20079;-70
2023/11/07 00:07:27;;;;;;;0.50;0.50;;;;;;;8.59;100.00;100501.69;10501320;28;20066;-70
2023/11/07 00:12:28;;;;;;;0.57;0.57;;;;;;;8.60;100.00;100508.72;10500581;28;20040;-69
2023/11/07 00:17:29;;;;;;;1.17;0.98;;;;;;;8.59;100.00;100508.94;10500081;28;20452;-70
2023/11/07 00:22:29;;;;;;;0.45;0.45;;;;;;;8.53;100.00;100507.84;10499822;28;20060;-70
2023/11/07 00:27:29;;;;;;;0.50;0.50;;;;;;;8.50;100.00;100523.59;10500017;28;20086;-71
2023/11/07 00:32:30;;;;;;;0.40;0.40;;;;;;;8.45;100.00;100516.06;10499373;28;20318;-70
2023/11/07 00:43:55;;;;;;;0.40;0.40;;;;;;;8.36;100.00;100506.41;12194132;22;20053;-72
2023/11/07 00:48:55;;;;;;;0.50;0.50;;;;;;;8.38;100.00;100520.56;10374400;28;20068;-71
2023/11/07 00:53:56;;;;;;;1.45;1.42;;;;;;;8.44;100.00;100518.97;10376658;28;20042;-70
2023/11/07 00:58:56;;;;;;;2.25;2.15;;;;;;;8.53;100.00;100531.31;10376788;28;20525;-70
2023/11/07 01:03:58;;;;;;;0.85;0.85;;;;;;;8.61;100.00;100552.75;10376542;28;20461;-70
2023/11/07 01:08:58;;;;;;;0.50;0.50;;;;;;;8.69;100.00;100546.41;10376472;28;20038;-72
2023/11/07 01:13:59;;;;;;;0.75;0.75;;;;;;;8.80;100.00;100554.78;10361212;28;20042;-70
2023/11/07 01:19:55;;;;;;;1.98;1.83;;;;;;;8.91;100.00;100555.31;10377323;28;20057;-71
2023/11/07 01:24:56;;;;;;;0.50;0.50;;;;;;;9.03;100.00;100551.88;10376047;28;20065;-69
2023/11/07 01:29:57;;;;;;;0.40;0.40;;;;;;;9.13;100.00;100550.72;10358138;28;20042;-71
2023/11/07 01:34:58;;;;;;;0.40;0.40;;;;;;;9.13;100.00;100537.22;10375480;28;20033;-70
2023/11/07 01:39:58;;;;;;;0.60;0.60;;;;;;;9.26;100.00;100532.72;10374936;28;20384;-70
2023/11/07 01:44:59;;;;;;;0.40;0.40;;;;;;;9.29;100.00;100534.19;10374575;28;20046;-69
2023/11/07 01:50:00;;;;;;;0.40;0.40;;;;;;;9.30;100.00;100535.84;10376235;28;20040;-69
2023/11/07 01:55:01;;;;;;;0.30;0.30;;;;;;;9.33;100.00;100543.56;10340909;28;20045;-71
2023/11/07 02:00:10;;;;;;;0.38;0.38;;;;;;;9.28;100.00;100537.91;10340857;28;20034;-71
2023/11/07 02:05:11;;;;;;;0.50;0.50;;;;;;;9.24;100.00;100559.09;10374368;28;20132;-69
2023/11/07 02:10:11;;;;;;;0.40;0.40;;;;;;;9.27;100.00;100558.69;10373827;28;20056;-70
2023/11/07 02:15:18;;;;;;;0.85;0.85;;;;;;;9.27;100.00;100564.09;10356173;28;20049;-71
2023/11/07 02:20:18;;;;;;;4.00;3.70;;;;;;;9.30;100.00;100563.72;10374021;28;20095;-70
2023/11/07 02:25:18;;;;;;;0.40;0.40;;;;;;;9.25;100.00;100562.63;10355024;28;20076;-70
2023/11/07 02:30:19;;;;;;;0.50;0.50;;;;;;;9.25;100.00;100560.78;10373108;28;20038;-70
2023/11/07 02:35:19;;;;;;;0.52;0.52;;;;;;;9.19;100.00;100560.72;10372421;28;20076;-71
2023/11/07 02:40:20;;;;;;;0.30;0.30;;;;;;;9.14;100.00;100549.69;10374204;28;20429;-71
2023/11/07 02:45:21;;;;;;;0.85;0.85;;;;;;;9.15;100.00;100554.88;10372940;28;20054;-71
2023/11/07 02:50:21;;;;;;;0.80;0.80;;;;;;;9.05;100.00;100560.63;10372646;28;20532;-69
2023/11/07 02:55:21;;;;;;;0.40;0.40;;;;;;;8.98;100.00;100564.31;10355081;28;20044;-71
2023/11/07 03:00:22;;;;;;;1.58;1.48;;;;;;;8.92;100.00;100555.09;10371660;28;20460;-71
2023/11/07 03:05:22;;;;;;;0.43;0.43;;;;;;;8.94;100.00;100560.34;10354554;28;20026;-71
2023/11/07 03:10:23;;;;;;;0.40;0.40;;;;;;;8.85;100.00;100556.94;10372528;28;20100;-72
2023/11/07 03:15:24;;;;;;;0.55;0.55;;;;;;;8.76;100.00;100558.09;10371949;28;20030;-69
2023/11/07 03:20:24;;;;;;;0.50;0.50;;;;;;;8.61;100.00;100553.59;10371781;28;20392;-72
2023/11/07 03:25:25;;;;;;;1.83;1.73;;;;;;;8.48;100.00;100555.31;10337937;28;20030;-69
2023/11/07 03:30:26;;;;;;;3.58;3.45;;;;;;;8.42;100.00;100548.00;10372017;28;20040;-72
2023/11/07 03:35:27;;;;;;;0.40;0.40;;;;;;;8.36;100.00;100546.88;10380890;28;20050;-72
2023/11/07 03:40:28;;;;;;;0.50;0.50;;;;;;;8.33;100.00;100555.38;10379999;28;20385;-72
2023/11/07 03:45:29;;;;;;;0.50;0.50;;;;;;;8.24;100.00;100556.50;10378886;28;20046;-70
2023/11/07 03:50:30;;;;;;;0.40;0.40;;;;;;;8.23;100.00;100561.06;10379037;28;20425;-71
2023/11/07 03:55:30;;;;;;;0.50;0.50;;;;;;;8.14;100.00;100568.44;10378824;28;20045;-71
2023/11/07 04:00:32;;;;;;;0.50;0.50;;;;;;;8.09;100.00;100565.47;10379309;28;20061;-71
2023/11/07 04:05:33;;;;;;;0.50;0.50;;;;;;;8.06;100.00;100573.09;10378023;28;20123;-72
2023/11/07 04:10:33;;;;;;;0.50;0.50;;;;;;;8.03;100.00;100566.22;10379226;28;20088;-71
2023/11/07 04:15:36;;;;;;;0.60;0.60;;;;;;;7.97;100.00;100576.91;10378354;28;20092;-70
2023/11/07 04:20:37;;;;;;;0.70;0.70;;;;;;;7.89;100.00;100580.56;10360736;28;20029;-69
2023/11/07 04:25:37;;;;;;;0.50;0.50;;;;;;;7.86;100.00;100578.25;10376892;28;20081;-72
2023/11/07 04:30:37;;;;;;;0.45;0.45;;;;;;;7.91;100.00;100586.59;10378771;28;20096;-71
2023/11/07 04:35:39;;;;;;;0.40;0.40;;;;;;;7.94;100.00;100580.81;10361692;28;20044;-70
2023/11/07 04:40:43;;;;;;;1.55;1.42;;;;;;;7.96;100.00;100584.19;10377514;28;20464;-71
2023/11/07 04:45:43;;;;;;;0.47;0.47;;;;;;;7.94;100.00;100586.22;10375606;28;20529;-71
2023/11/07 04:50:44;;;;;;;0.40;0.40;;;;;;;7.91;100.00;100586.59;10376801;28;20030;-70
2023/11/07 04:55:44;;;;;;;0.60;0.60;;;;;;;7.82;100.00;100596.66;10377143;28;20460;-71
2023/11/07 05:00:45;;;;;;;0.60;0.60;;;;;;;7.77;100.00;100598.22;10379007;28;20041;-70
2023/11/07 05:05:47;;;;;;;0.57;0.57;;;;;;;7.72;100.00;100581.78;10377712;28;20034;-71
2023/11/07 05:10:47;;;;;;;0.40;0.40;;;;;;;7.71;100.00;100583.63;10377318;28;20124;-70
2023/11/07 05:15:48;;;;;;;0.68;0.68;;;;;;;7.62;100.00;100582.88;10376664;28;20414;-71
2023/11/07 05:20:49;;;;;;;0.45;0.45;;;;;;;7.64;100.00;100594.31;10376281;28;20041;-72
2023/11/07 05:25:50;;;;;;;0.50;0.50;;;;;;;7.66;100.00;100586.91;10375331;28;20030;-71
2023/11/07 05:30:50;;;;;;;1.75;1.67;;;;;;;7.59;100.00;100587.81;10375954;28;20377;-71
2023/11/07 05:35:51;;;;;;;0.50;0.50;;;;;;;7.68;100.00;100595.63;10375110;28;20038;-71
2023/11/07 05:40:51;;;;;;;0.77;0.77;;;;;;;7.77;100.00;100593.69;10375542;28;20049;-70
2023/11/07 05:45:52;;;;;;;0.43;0.43;;;;;;;7.90;100.00;100611.88;10374365;28;20528;-71
2023/11/07 05:50:52;;;;;;;0.63;0.63;;;;;;;7.89;100.00;100600.28;10375019;28;20445;-70
2023/11/07 05:55:53;;;;;;;0.50;0.50;;;;;;;7.78;100.00;100598.03;10356663;28;20040;-71
2023/11/07 06:00:55;;;;;;;0.50;0.50;;;;;;;7.76;100.00;100602.78;10374550;28;20080;-73
2023/11/07 06:05:55;;;;;;;0.60;0.60;;;;;;;7.78;100.00;100598.03;10356156;28;20037;-70
2023/11/07 06:10:56;;;;;;;0.43;0.43;;;;;;;7.83;100.00;100610.97;10374647;28;20045;-71
2023/11/07 06:15:56;;;;;;;0.55;0.55;;;;;;;7.76;100.00;100600.09;10373195;28;20436;-69
2023/11/07 06:20:57;;;;;;;0.40;0.40;;;;;;;7.77;100.00;100614.41;10356137;28;20038;-70
2023/11/07 06:25:58;;;;;;;0.50;0.50;;;;;;;7.67;100.00;100617.38;10372823;28;20040;-69
2023/11/07 06:30:58;;;;;;;0.50;0.50;;;;;;;7.55;100.00;100608.91;10354463;28;20340;-71
2023/11/07 06:35:59;;;;;;;1.30;1.27;;;;;;;7.57;100.00;100616.81;10372448;28;20140;-71
2023/11/07 06:40:59;;;;;;;2.47;1.27;;;;;;;7.53;100.00;100621.75;10372560;28;20501;-71
2023/11/07 06:46:00;;;;;;;1.40;1.30;;;;;;;7.55;100.00;100630.47;10372356;28;20108;-70
2023/11/07 06:51:02;;;;;;;6.22;1.48;;;;;;;7.55;100.00;100629.63;10338808;28;20038;-69
2023/11/07 06:56:03;;;;;;;3.70;1.67;;;;;;;7.53;100.00;100626.28;10374665;28;20405;-70
2023/11/07 07:01:04;;;;;;;1.88;1.67;;;;;;;7.57;100.00;100641.91;10374786;28;20038;-69
2023/11/07 07:06:06;;;;;;;1.15;1.15;;;;;;;7.57;100.00;100641.91;10373921;28;20062;-69
2023/11/07 07:11:06;;;;;;;2.35;1.92;;;;;;;7.61;100.00;100637.81;10380949;28;20065;-71
2023/11/07 07:16:08;;;;;;;5.45;1.88;;;;;;;7.72;100.00;100644.59;10362666;28;20054;-70
2023/11/07 07:21:09;;;;;;;5.38;1.98;;;;;;;8.05;100.00;100657.72;10379611;28;20046;-70
2023/11/07 07:26:12;;;;;;;2.13;1.42;;;;;;;8.31;100.00;100660.75;10380234;28;20037;-71
2023/11/07 07:31:16;;;;;;;0.98;0.98;;;;;;;8.66;100.00;100669.09;10379748;28;20066;-69
2023/11/07 07:36:17;;;;;;;5.07;1.70;;;;;;;9.06;100.00;100667.66;10379594;28;20458;-71
2023/11/07 07:41:17;;;;;;;1.27;1.27;;;;;;;9.34;100.00;100666.00;10383883;28;20037;-71
2023/11/07 07:46:18;;;;;;;1.25;1.25;;;;;;;9.67;100.00;100677.91;10370575;28;20049;-70
2023/11/07 07:51:19;;;;;;;1.40;1.40;;;;;;;10.25;100.00;100685.75;10386353;28;20030;-70
2023/11/07 07:56:19;;;;;;;1.92;1.70;;;;;;;10.35;100.00;100682.72;10379396;28;20381;-69
2023/11/07 08:01:19;;;;;;;1.60;1.50;;;;;;;10.64;100.00;100684.28;10378920;28;20080;-69
2023/11/07 08:06:20;;;;;;;3.30;1.52;;;;;;;10.77;100.00;100684.31;10361554;28;20057;-70
2023/11/07 08:11:21;;;;;;;1.50;1.40;;;;;;;11.01;100.00;100687.47;10379251;28;20038;-69
2023/11/07 08:16:21;;;;;;;2.58;1.42;;;;;;;11.43;100.00;100699.84;10378115;28;20053;-69
2023/11/07 08:21:21;;;;;;;5.68;1.80;;;;;;;11.10;100.00;100699.81;10377240;28;20041;-71
2023/11/07 08:26:22;;;;;;;3.53;1.75;;;;;;;11.28;100.00;100697.34;10359957;28;20480;-69
2023/11/07 08:31:23;;;;;;;13.65;3.08;;;;;;;11.34;100.00;100718.19;10377343;28;20065;-70
2023/11/07 08:36:24;;;;;;;2.30;1.70;;;;;;;11.90;100.00;100717.00;10377268;28;20034;-70
2023/11/07 08:41:25;;;;;;;2.58;2.38;;;;;;;12.46;100.00;100718.31;10377367;28;20072;-69
2023/11/07 08:46:26;;;;;;;2.30;2.10;;;;;;;12.93;100.00;100722.47;10359471;28;20483;-69
2023/11/07 08:51:28;;;;;;;4.50;2.25;;;;;;;12.75;100.00;100725.91;10376049;28;20038;-68
2023/11/07 08:56:28;;;;;;;2.20;2.00;;;;;;;13.03;100.00;100733.72;10376240;28;20034;-70
2023/11/07 09:01:29;;;;;;;8.10;2.80;;;;;;;12.86;100.00;100723.53;10377798;28;20041;-67
2023/11/07 09:06:29;;;;;;;4.78;2.13;;;;;;;13.35;100.00;100730.22;10358208;28;20358;-68
2023/11/07 09:11:30;;;;;;;3.90;2.10;;;;;;;13.49;100.00;100731.75;10376086;28;20389;-70
2023/11/07 09:16:31;;;;;;;1.98;1.85;;;;;;;13.63;100.00;100738.78;10377221;28;20038;-71
2023/11/07 09:21:32;;;;;;;5.18;3.05;;;;;;;13.72;100.00;100740.19;10378387;28;20045;-70
2023/11/07 09:26:33;;;;;;;1.65;1.55;;;;;;;13.93;100.00;100744.38;10375689;28;20073;-68
2023/11/07 09:31:33;;;;;;;1.83;1.38;;;;;;;14.26;100.00;100742.38;10341806;28;20138;-69
2023/11/07 09:36:34;;;;;;;3.95;2.03;;;;;;;14.47;100.00;100755.56;10374201;28;20540;-69
2023/11/07 09:41:34;;;;;;;1.85;1.75;;;;;;;14.64;100.00;100751.22;10374475;28;20083;-68
2023/11/07 09:46:35;;;;;;;2.42;2.20;;;;;;;14.73;100.00;100765.34;10356401;28;20093;-68
2023/11/07 09:51:36;;;;;;;8.25;2.80;;;;;;;14.68;100.00;100758.91;10374726;28;20049;-68
2023/11/07 09:56:42;;;;;;;4.93;1.85;;;;;;;14.56;100.00;100767.88;10356005;28;20048;-69
2023/11/07 10:01:43;;;;;;;5.63;1.83;;;;;;;14.74;100.00;100777.06;10374936;28;20064;-68
2023/11/07 10:06:43;;;;;;;4.85;1.58;;;;;;;14.86;100.00;100784.25;10373001;28;20037;-70
2023/11/07 10:11:44;;;;;;;7.53;2.92;;;;;;;14.86;100.00;100792.44;10340041;28;20080;-68
2023/11/07 10:16:48;;;;;;;15.40;2.65;;;;;;;15.28;100.00;100784.38;10377025;28;20033;-69
2023/11/07 10:21:49;;;;;;;1.30;1.23;;;;;;;15.41;100.00;100777.88;10339880;28;20490;-68
2023/11/07 10:26:53;;;;;;;2.00;1.80;;;;;;;15.40;100.00;100770.75;10340463;28;20057;-69
2023/11/07 10:32:04;;;;;;;3.08;1.75;;;;;;;15.54;100.00;100771.41;10374983;28;20061;-68
2023/11/07 10:37:07;;;;;;;4.60;1.60;;;;;;;15.49;100.00;100774.81;10355000;28;20038;-69
2023/11/07 10:42:17;;;;;;;4.05;2.35;;;;;;;15.52;100.00;100774.34;10339554;28;20041;-68
2023/11/07 10:47:19;;;;;;;3.17;1.90;;;;;;;15.24;100.00;100774.13;10372803;28;20049;-69
2023/11/07 10:52:20;;;;;;;4.97;1.92;;;;;;;15.38;100.00;100778.34;10355378;28;20034;-68
2023/11/07 10:57:23;;;;;;;3.72;2.55;;;;;;;15.41;100.00;100782.47;10354345;28;20041;-68
2023/11/07 11:02:24;;;;;;;2.85;1.70;;;;;;;15.65;100.00;100778.75;10371806;28;20088;-68
2023/11/07 11:07:25;;;;;;;5.85;1.65;;;;;;;15.64;100.00;100782.56;10353752;28;20046;-69
2023/11/07 11:12:25;;;;;;;8.35;1.55;;;;;;;15.38;100.00;100783.81;10355120;28;20034;-68
2023/11/07 11:17:37;;;;;;;6.25;2.22;;;;;;;15.57;100.00;100779.09;10354252;28;20077;-68
2023/11/07 11:22:43;;;;;;;5.35;2.63;;;;;;;15.29;100.00;100780.56;10354799;28;20037;-68
2023/11/07 11:27:51;;;;;;;4.60;2.13;;;;;;;15.03;100.00;100780.94;10354340;28;20104;-69
2023/11/07 11:33:07;;;;;;;6.13;1.45;;;;;;;15.38;100.00;100778.34;10355392;28;20076;-68
2023/11/07 11:38:15;;;;;;;8.87;3.10;;;;;;;15.22;100.00;100773.53;10354006;28;20529;-68
2023/11/07 11:43:22;;;;;;;2.47;1.50;;;;;;;15.62;100.00;100775.69;10353137;28;20030;-67
2023/11/07 11:48:44;;;;;;;;;;;;;;;15.65;100.00;100767.84;10354607;28;20038;-68
2023/11/07 11:53:48;;;;;;;3.47;1.85;;;;;;;15.06;100.00;100778.56;10377283;28;19913;-70
2023/11/07 11:59:02;;;;;;;5.47;2.35;;;;;;;14.95;100.00;100779.34;10380370;28;20046;-69
2023/11/07 12:04:03;;;;;;;8.55;1.92;;;;;;;14.55;100.00;100766.22;10381105;28;20042;-68
2023/11/07 12:09:03;;;;;;;1.65;1.55;;;;;;;15.31;100.00;100777.59;10363433;28;20037;-67
2023/11/07 12:14:05;;;;;;;2.95;2.35;;;;;;;15.54;100.00;100783.13;10360463;28;20048;-69
2023/11/07 12:19:05;;;;;;;3.78;2.30;;;;;;;14.44;100.00;100777.81;10378162;28;20084;-67
2023/11/07 12:24:06;;;;;;;10.10;2.53;;;;;;;13.96;100.00;100786.66;10377986;28;20080;-68
2023/11/07 12:29:06;;;;;;;6.80;2.75;;;;;;;13.37;100.00;100782.47;10378003;28;20112;-68
2023/11/07 12:34:06;;;;;;;5.03;1.77;;;;;;;12.63;100.00;100795.53;10359828;28;20121;-66
2023/11/07 12:39:08;;;;;;;6.70;2.70;;;;;;;11.65;100.00;100795.41;10344333;28;20038;-66
2023/11/07 12:44:13;;;;;;;8.57;3.30;;;;;;;11.07;100.00;100800.47;10376413;28;20093;-68
2023/11/07 12:49:14;;;;;;;1.92;1.77;;;;;;;10.90;100.00;100791.88;10342871;28;20509;-69
2023/11/07 12:54:16;;;;;;;6.75;2.67;;;;;;;11.15;100.00;100781.34;10358720;28;20404;-68
2023/11/07 12:59:17;;;;;;;2.35;1.50;;;;;;;11.24;100.00;100777.41;10375614;28;20108;-67
2023/11/07 13:04:18;;;;;;;19.10;3.15;;;;;;;11.65;100.00;100790.00;10358433;28;20333;-70
2023/11/07 13:09:21;;;;;;;8.95;2.33;;;;;;;11.41;100.00;100784.09;10375554;28;20121;-67
2023/11/07 13:14:22;;;;;;;7.40;3.47;;;;;;;11.51;100.00;100782.88;10375934;28;20049;-68
2023/11/07 13:19:22;;;;;;;7.45;3.08;;;;;;;11.56;100.00;100786.63;10357040;28;20442;-67
2023/11/07 13:24:25;;;;;;;4.10;3.65;;;;;;;11.34;100.00;100785.97;10374722;28;20046;-67
2023/11/07 13:29:25;;;;;;;5.25;2.45;;;;;;;11.36;100.00;100786.63;10374571;28;20121;-68
2023/11/07 13:34:26;;;;;;;7.55;3.05;;;;;;;11.26;100.00;100783.44;10357820;28;20361;-68
2023/11/07 13:39:28;;;;;;;6.40;2.97;;;;;;;11.35;100.00;100795.75;10357611;28;20038;-67
2023/11/07 13:44:29;;;;;;;5.65;2.08;;;;;;;11.49;100.00;100787.69;10356494;28;20100;-67
2023/11/07 13:49:30;;;;;;;9.00;1.85;;;;;;;11.72;100.00;100792.72;10374112;28;20080;-68
2023/11/07 13:54:32;;;;;;;2.40;1.75;;;;;;;11.52;100.00;100790.81;10356393;28;20038;-68
2023/11/07 13:59:32;;;;;;;7.18;2.22;;;;;;;11.47;100.00;100789.75;10375586;28;20044;-68
2023/11/07 14:04:33;;;;;;;8.90;3.03;;;;;;;11.37;100.00;100790.97;10357767;28;20331;-68
2023/11/07 14:09:34;;;;;;;8.63;1.88;;;;;;;11.22;100.00;100784.06;10374159;28;20026;-67
2023/11/07 14:14:34;;;;;;;2.13;1.92;;;;;;;11.69;100.00;100787.69;10372997;28;20346;-68
2023/11/07 14:19:36;;;;;;;7.97;3.20;;;;;;;11.52;100.00;100798.94;10357650;28;20089;-68
2023/11/07 14:24:37;;;;;;;4.40;2.10;;;;;;;11.28;100.00;100786.78;10358511;28;20026;-68
2023/11/07 14:29:39;;;;;;;4.28;1.83;;;;;;;11.05;100.00;100791.75;10356159;28;20033;-68
2023/11/07 14:34:42;;;;;;;3.50;1.65;;;;;;;11.02;100.00;100803.81;10373027;28;20426;-69
2023/11/07 14:39:44;;;;;;;5.93;2.17;;;;;;;11.28;100.00;100810.34;10372275;28;20041;-69
2023/11/07 14:44:45;;;;;;;8.13;2.25;;;;;;;11.41;100.00;100800.38;10354457;28;20057;-69
2023/11/07 14:49:46;;;;;;;4.53;1.40;;;;;;;11.09;100.00;100799.25;10371828;28;20485;-68
2023/11/07 14:54:46;;;;;;;10.65;1.95;;;;;;;10.86;100.00;100813.13;10372719;28;20037;-69
2023/11/07 14:59:46;;;;;;;4.93;2.05;;;;;;;10.71;100.00;100823.25;10371523;28;20066;-69
2023/11/07 15:04:47;;;;;;;7.35;2.35;;;;;;;10.99;100.00;100820.47;10371923;28;20034;-68
2023/11/07 15:09:47;;;;;;;2.78;1.95;;;;;;;11.03;100.00;100818.19;10354938;28;20109;-70
2023/11/07 15:14:48;;;;;;;9.18;1.95;;;;;;;10.80;100.00;100816.63;10374870;28;20503;-69
2023/11/07 15:19:49;;;;;;;3.95;2.33;;;;;;;10.60;100.00;100818.41;10356973;28;20104;-68
2023/11/07 15:24:49;;;;;;;6.32;2.60;;;;;;;10.41;100.00;100815.38;10357943;28;20069;-69
2023/11/07 15:29:49;;;;;;;7.10;3.08;;;;;;;10.27;100.00;100810.91;10378796;28;20072;-68
2023/11/07 15:34:50;;;;;;;4.65;1.27;;;;;;;10.11;100.00;100805.75;10379229;28;20038;-68
2023/11/07 15:39:50;;;;;;;5.35;2.08;;;;;;;9.95;100.00;100805.00;10379917;28;20042;-70
2023/11/07 15:44:51;;;;;;;3.33;2.05;;;;;;;9.93;100.00;100812.50;10379029;28;20066;-68
2023/11/07 15:49:52;;;;;;;2.17;1.98;;;;;;;9.91;100.00;100806.44;10361417;28;20038;-67
2023/11/07 15:54:52;;;;;;;4.13;1.85;;;;;;;9.92;100.00;100801.88;10378969;28;20066;-67
2023/11/07 15:59:53;;;;;;;6.13;1.65;;;;;;;9.83;100.00;100803.03;10378613;28;20085;-68
2023/11/07 16:04:53;;;;;;;4.38;1.92;;;;;;;9.85;100.00;100803.69;10361723;28;20038;-68
2023/11/07 16:09:53;;;;;;;4.20;2.25;;;;;;;9.93;100.00;100801.69;10377839;28;20349;-67
2023/11/07 16:14:54;;;;;;;3.03;1.58;;;;;;;9.81;100.00;100808.66;10379135;28;20081;-68
2023/11/07 16:19:54;;;;;;;4.25;2.08;;;;;;;9.95;100.00;100815.00;10376394;28;20477;-69
2023/11/07 16:24:57;;;;;;;1.52;1.42;;;;;;;10.01;100.00;100815.03;10377772;28;20046;-69
2023/11/07 16:29:59;;;;;;;9.60;2.53;;;;;;;9.81;100.00;100803.25;10378627;28;20026;-68
2023/11/07 16:35:00;;;;;;;2.72;1.75;;;;;;;9.76;100.00;100809.25;10377479;28;20129;-68
2023/11/07 16:40:01;;;;;;;8.60;2.67;;;;;;;9.77;100.00;100810.06;10360314;28;20212;-68
2023/11/07 16:45:03;;;;;;;6.68;2.17;;;;;;;9.76;100.00;100816.50;10377338;28;20446;-67
2023/11/07 16:50:04;;;;;;;4.43;2.20;;;;;;;9.93;100.00;100823.31;10378447;28;20038;-69
2023/11/07 16:55:08;;;;;;;7.32;1.60;;;;;;;9.82;100.00;100820.28;10361635;28;20041;-66
2023/11/07 17:00:11;;;;;;;2.20;1.55;;;;;;;9.75;100.00;100815.66;10378570;28;20133;-67
2023/11/07 17:05:11;;;;;;;4.68;1.50;;;;;;;9.72;100.00;100816.06;10374458;28;20056;-68
2023/11/07 17:10:12;;;;;;;6.50;2.83;;;;;;;9.60;100.00;100820.28;10375382;28;20422;-67
2023/11/07 17:15:12;;;;;;;3.30;1.42;;;;;;;9.44;100.00;100817.84;10376524;28;20049;-67
2023/11/07 17:20:13;;;;;;;6.05;1.83;;;;;;;9.34;100.00;100833.53;10342067;28;20381;-69
2023/11/07 17:25:13;;;;;;;7.90;2.15;;;;;;;9.29;100.00;100820.63;10375740;28;20045;-69
2023/11/07 17:30:14;;;;;;;7.15;2.67;;;;;;;9.20;100.00;100810.97;10376676;28;20527;-68
2023/11/07 17:35:14;;;;;;;7.72;1.90;;;;;;;9.22;100.00;100831.34;10375391;28;20037;-69
2023/11/07 17:40:15;;;;;;;3.88;1.10;;;;;;;9.32;100.00;100842.69;10374894;28;20113;-69
2023/11/07 17:45:15;;;;;;;12.15;2.35;;;;;;;9.44;100.00;100832.19;10375001;28;20068;-68
2023/11/07 17:50:16;;;;;;;1.42;1.33;;;;;;;9.64;100.00;100845.09;10366173;28;20030;-68
2023/11/07 17:55:18;;;;;;;4.63;2.65;;;;;;;9.71;100.00;100851.41;10358181;28;20057;-68
2023/11/07 18:00:18;;;;;;;4.38;2.67;;;;;;;9.54;100.00;100851.66;10374100;28;20042;-69
2023/11/07 18:05:19;;;;;;;2.38;2.17;;;;;;;9.34;100.00;100847.91;10374310;28;20390;-67
2023/11/07 18:10:21;;;;;;;1.63;1.05;;;;;;;9.24;100.00;100850.91;10356211;28;20381;-68
2023/11/07 18:15:23;;;;;;;5.35;2.15;;;;;;;9.08;100.00;100857.34;10374327;28;20117;-68
2023/11/07 18:20:23;;;;;;;8.35;2.42;;;;;;;8.92;100.00;100841.38;10373644;28;20477;-68
2023/11/07 18:25:24;;;;;;;4.47;2.00;;;;;;;8.89;100.00;100852.53;10374142;28;20026;-68
2023/11/07 18:30:24;;;;;;;4.05;1.83;;;;;;;8.91;100.00;100845.09;10373380;28;20362;-68
2023/11/07 18:35:24;;;;;;;2.72;1.65;;;;;;;8.88;100.00;100856.28;10373039;28;20038;-68
2023/11/07 18:40:25;;;;;;;14.82;2.83;;;;;;;8.90;100.00;100843.41;10372767;28;20053;-67
2023/11/07 18:45:25;;;;;;;4.15;2.30;;;;;;;8.95;100.00;100854.50;10371953;28;20501;-68
2023/11/07 18:50:26;;;;;;;5.22;1.92;;;;;;;9.14;100.00;100874.69;10375175;28;20370;-68
2023/11/07 18:55:27;;;;;;;2.13;1.92;;;;;;;9.16;100.00;100871.81;10356497;28;20488;-70
2023/11/07 19:00:27;;;;;;;5.38;1.92;;;;;;;8.97;100.00;100879.47;10341069;28;20480;-67
2023/11/07 19:05:27;;;;;;;3.95;1.75;;;;;;;8.85;100.00;100876.38;10375585;28;20069;-70
2023/11/07 19:10:28;;;;;;;2.53;2.33;;;;;;;8.80;100.00;100875.25;10375864;28;20045;-67
2023/11/07 19:15:29;;;;;;;2.40;2.17;;;;;;;8.94;100.00;100882.53;10376279;28;20060;-66
2023/11/07 19:20:30;;;;;;;9.32;2.58;;;;;;;9.01;100.00;100879.91;10376631;28;20038;-70
2023/11/07 19:25:30;;;;;;;4.03;2.38;;;;;;;8.98;100.00;100878.44;10375435;28;20058;-69
2023/11/07 19:30:31;;;;;;;12.88;2.95;;;;;;;9.03;100.00;100889.53;10339858;28;20034;-67
2023/11/07 19:35:31;;;;;;;2.90;1.83;;;;;;;9.06;100.00;100886.44;10339184;28;20042;-67
2023/11/07 19:40:33;;;;;;;11.70;2.97;;;;;;;9.04;100.00;100893.88;10339668;28;20374;-69
2023/11/07 19:45:33;;;;;;;1.80;1.75;;;;;;;9.00;100.00;100897.16;10373272;28;20084;-69
2023/11/07 19:50:34;;;;;;;1.05;1.05;;;;;;;8.98;100.00;100891.94;10373671;28;20045;-69
2023/11/07 19:55:34;;;;;;;0.40;0.40;;;;;;;8.81;100.00;100896.69;10372520;28;20396;-72
2023/11/07 20:00:35;;;;;;;0.40;0.40;;;;;;;8.80;100.00;100897.69;10371741;28;20085;-76
2023/11/07 20:05:35;;;;;;;0.50;0.50;;;;;;;8.78;100.00;100894.38;10371968;28;20030;-71
2023/11/07 20:10:36;;;;;;;0.40;0.40;;;;;;;8.69;100.00;100897.34;10371515;28;20117;-74
2023/11/07 20:15:36;;;;;;;0.50;0.50;;;;;;;8.57;100.00;100897.78;10376038;28;20057;-69
2023/11/07 20:20:37;;;;;;;0.75;0.75;;;;;;;8.58;100.00;100887.81;10378330;28;20034;-67
2023/11/07 20:25:37;;;;;;;0.40;0.40;;;;;;;8.73;100.00;100904.88;10345247;28;20034;-72
2023/11/07 20:30:37;;;;;;;0.68;0.68;;;;;;;8.86;100.00;100896.13;10378357;28;20090;-70
2023/11/07 20:35:39;;;;;;;0.73;0.73;;;;;;;8.84;100.00;100890.91;10377454;28;20555;-70
2023/11/07 20:40:39;;;;;;;0.40;0.40;;;;;;;8.93;100.00;100885.41;10360937;28;20046;-71
2023/11/07 20:45:40;;;;;;;0.50;0.50;;;;;;;9.03;100.00;100875.16;10359360;28;20571;-69
2023/11/07 20:50:41;;;;;;;0.75;0.75;;;;;;;9.10;100.00;100892.31;10377221;28;20101;-69
2023/11/07 20:55:42;;;;;;;0.50;0.50;;;;;;;9.14;100.00;100888.19;10376512;28;20045;-71
2023/11/07 21:00:43;;;;;;;0.80;0.80;;;;;;;9.27;100.00;100909.97;10377135;28;20065;-70
2023/11/07 21:05:44;;;;;;;1.10;1.10;;;;;;;9.35;100.00;100930.66;10375731;28;20510;-69
2023/11/07 21:10:44;;;;;;;0.50;0.50;;;;;;;9.31;100.00;100926.63;10376528;28;20079;-70
2023/11/07 21:15:45;;;;;;;0.73;0.73;;;;;;;9.21;100.00;100918.00;10375862;28;20442;-73
2023/11/07 21:20:45;;;;;;;1.95;1.88;;;;;;;9.22;100.00;100900.75;10375838;28;20038;-73
2023/11/07 21:25:46;;;;;;;0.55;0.55;;;;;;;9.19;100.00;100920.91;10374723;28;20018;-72
2023/11/07 21:30:46;;;;;;;0.50;0.50;;;;;;;9.26;100.00;100921.81;10376843;28;20037;-72
2023/11/07 21:35:48;;;;;;;0.50;0.50;;;;;;;9.32;100.00;100917.53;10377936;28;20090;-75
2023/11/07 21:40:48;;;;;;;0.30;0.30;;;;;;;9.40;100.00;100920.09;10377909;28;20041;-72
2023/11/07 21:45:51;;;;;;;1.13;1.13;;;;;;;9.41;100.00;100921.81;10358370;28;20050;-71
2023/11/07 21:50:51;;;;;;;0.50;0.50;;;;;;;9.38;100.00;100916.78;10357733;28;20038;-71
2023/11/07 21:55:54;;;;;;;0.40;0.40;;;;;;;9.40;100.00;100908.47;10356845;28;20113;-72
2023/11/07 22:00:55;;;;;;;0.40;0.40;;;;;;;9.39;100.00;100913.03;10357466;28;20077;-70
2023/11/07 22:05:55;;;;;;;0.40;0.40;;;;;;;9.36;100.00;100918.81;10375393;28;20078;-70
2023/11/07 22:10:56;;;;;;;1.20;1.20;;;;;;;9.34;100.00;100915.44;10375194;28;20476;-70
2023/11/07 22:15:56;;;;;;;0.80;0.80;;;;;;;9.36;100.00;100918.81;10356025;28;20038;-70
2023/11/07 22:20:56;;;;;;;0.50;0.50;;;;;;;9.39;100.00;100931.94;10355689;28;20034;-71
2023/11/07 22:25:57;;;;;;;0.40;0.40;;;;;;;9.48;100.00;100933.53;10355759;28;20096;-71
2023/11/07 22:30:57;;;;;;;0.82;0.80;;;;;;;9.44;100.00;100928.66;10373094;28;20041;-70
2023/11/07 22:35:58;;;;;;;1.25;1.25;;;;;;;9.45;100.00;100928.50;10373710;28;20029;-70
2023/11/07 22:40:59;;;;;;;0.50;0.50;;;;;;;9.43;100.00;100938.66;10355933;28;20037;-71
2023/11/07 22:45:59;;;;;;;0.45;0.45;;;;;;;9.43;100.00;100940.50;10355798;28;20165;-71
2023/11/07 22:51:00;;;;;;;0.45;0.45;;;;;;;9.43;100.00;100930.53;10372843;28;20456;-70
2023/11/07 22:56:00;;;;;;;3.20;2.92;;;;;;;9.24;100.00;100934.66;10372100;28;20030;-71
2023/11/07 23:01:02;;;;;;;0.40;0.40;;;;;;;9.20;100.00;100935.25;10354674;28;20026;-71
2023/11/07 23:06:03;;;;;;;0.30;0.30;;;;;;;9.32;100.00;100944.56;10371350;28;20101;-71